Weather at Residence Inn by Marriott Long Beach Downtown Helipad

Public forecast

Using degrees Fahrenheit for public forecast. Weather courtesy of forecast.io.

Closest aviation weather report (METAR) to Residence Inn by Marriott Long Beach Downtown Helipad

Closest report is Long Beach Airport (Daugherty Field), 4.3 nm (8.0 km) NE. Retrieved 2022/01/27 08:02 UTC (8 minutes ago):

KLGB 270802Z AUTO 00000KT 8SM BKN005 11/08 A3013 RMK AO2 T01060083

Closest aviation forecast (TAF) to Residence Inn by Marriott Long Beach Downtown Helipad

Closest forecast is Long Beach Airport (Daugherty Field), 4.3 nm (8.0 km) NE. Retrieved 2022/01/27 06:40 UTC (1 hour ago):

TAF KLGB 270538Z 2706/2806 VRB03KT P6SM SKC FM272100 25005KT P6SM SKC FM280000 30005KT P6SM SKC FM280300 VRB03KT P6SM SKC